Etusivu
METAR-TAF:

METAR-TAF

Lentoasemat :

Trondheimin lentoasema

Trondheim, Norja

Leveyspiiri: 63-28N, Pituuspiiri: 010-56E, korkeus merenpinnasta: 1 m

Tämänhetkinen sää

Tämä raportti tehtiin 25 minuuttia sitten, kello 15.50 UTC
Tuuli 6 kn kaakosta
Lämpötila -1°C
Kosteus 93%
Ilmanpaine 1035 hPa
Näkyvyys 10 km tai enemmän
Muutamia pilviä 2200 ft:n korkeudessa

METAR: ENVA 201550Z 13006KT 9999 FEW022 M01/M02 Q1035 NOSIG RMK WIND 670FT 15005KT

Aika: 17:15 (16:15 UTC)

Sääennuste

Ennuste voimassa 20. päivästä klo 12 UTC - 21. päivään klo 12 UTC
Tuuli 8 kn idästä/kaakosta
Näkyvyys 10 km tai enemmän
Muutamia pilviä 1200 ft:n korkeudessa
Hajonneita pilviä 2500 ft:n korkeudessa
Ajoittain
20. päivästä klo 12 UTC - 20. päivään klo 18 UTC
Hajonneita pilviä 1200 ft:n korkeudessa

TAF: ENVA 2012/2112 12008KT 9999 FEW012 BKN025 TEMPO 2012/2018 BKN012

Säähavainnot ja -ennusteet yli 4000 lentoasemalta (METAR- ja TAF-raportit).

Käytössä olevat sääasemat on merkitty karttaan keltaisilla ja punaisilla pisteillä.

Aseta hiiri pisteen päälle nähdäksesi sääaseman nimen.

Klikkaa sitten nähdäksesi säähavainnot ja -ennusteet.

Kartan vaihtaminen: klikkaa mustalla rastilla varustettuja vihreitä pisteitä, niin voit zoomata sisään; viivalla varustettua vihreää pistettä, niin voit zoomata ulos tai vihreitä nuolia, niin pääset viereisille kartoille.


METAR-TAF: